Weather at Sears-Crossing Airstrip

Public forecast

Using degrees Celsius for public forecast. Weather courtesy of forecast.io.

Closest aviation weather report (METAR) to Sears-Crossing Airstrip

Closest report is Cranfield Airport, 11.0 nm (20.3 km) N. Retrieved 2021/06/12 11:20 UTC (39 minutes ago):

EGTC 121120Z 33009KT 290V360 9999 SCT032 18/11 Q1024

Closest aviation forecast (TAF) to Sears-Crossing Airstrip

Closest forecast is London Luton Airport, 11.3 nm (21.0 km) E. Retrieved 2021/06/12 06:00 UTC (6 hours ago):

TAF EGGW 120453Z 1206/1306 30008KT 9999 SCT035